sensor_id;sensor_type;location;lat;lon;timestamp;temperature;humidity
23550;DHT22;11953;49.010;8.608;2023-06-22T00:00:00;26.10;99.90
23550;DHT22;11953;49.010;8.608;2023-06-22T00:02:56;26.10;99.90
23550;DHT22;11953;49.010;8.608;2023-06-22T00:05:44;26.10;99.90
23550;DHT22;11953;49.010;8.608;2023-06-22T00:08:31;26.10;99.90
23550;DHT22;11953;49.010;8.608;2023-06-22T00:11:19;26.10;99.90
23550;DHT22;11953;49.010;8.608;2023-06-22T00:14:05;26.10;99.90
23550;DHT22;11953;49.010;8.608;2023-06-22T00:16:52;26.10;99.90
23550;DHT22;11953;49.010;8.608;2023-06-22T00:19:40;26.10;99.90
23550;DHT22;11953;49.010;8.608;2023-06-22T00:22:27;26.10;99.90
23550;DHT22;11953;49.010;8.608;2023-06-22T00:25:14;26.10;99.90
23550;DHT22;11953;49.010;8.608;2023-06-22T00:28:03;26.10;99.90
23550;DHT22;11953;49.010;8.608;2023-06-22T00:30:52;26.10;99.90
23550;DHT22;11953;49.010;8.608;2023-06-22T00:33:39;26.10;99.90
23550;DHT22;11953;49.010;8.608;2023-06-22T00:36:26;26.10;99.90
23550;DHT22;11953;49.010;8.608;2023-06-22T00:39:15;26.10;99.90
23550;DHT22;11953;49.010;8.608;2023-06-22T00:42:02;26.10;99.90
23550;DHT22;11953;49.010;8.608;2023-06-22T00:44:50;26.10;99.90
23550;DHT22;11953;49.010;8.608;2023-06-22T00:47:37;26.10;99.90
23550;DHT22;11953;49.010;8.608;2023-06-22T00:50:26;26.00;99.90
23550;DHT22;11953;49.010;8.608;2023-06-22T00:53:16;26.00;99.90
23550;DHT22;11953;49.010;8.608;2023-06-22T00:56:04;26.00;99.90
23550;DHT22;11953;49.010;8.608;2023-06-22T00:58:54;26.00;99.90
23550;DHT22;11953;49.010;8.608;2023-06-22T01:01:44;26.00;99.90
23550;DHT22;11953;49.010;8.608;2023-06-22T01:04:35;26.00;99.90
23550;DHT22;11953;49.010;8.608;2023-06-22T01:07:30;26.00;99.90
23550;DHT22;11953;49.010;8.608;2023-06-22T01:10:22;26.10;99.90
23550;DHT22;11953;49.010;8.608;2023-06-22T01:13:18;26.00;99.90
23550;DHT22;11953;49.010;8.608;2023-06-22T01:16:09;26.00;99.90
23550;DHT22;11953;49.010;8.608;2023-06-22T01:19:03;26.00;99.90
23550;DHT22;11953;49.010;8.608;2023-06-22T01:21:53;26.00;99.90
23550;DHT22;11953;49.010;8.608;2023-06-22T01:24:48;26.00;99.90
23550;DHT22;11953;49.010;8.608;2023-06-22T01:27:44;26.00;99.90
23550;DHT22;11953;49.010;8.608;2023-06-22T01:30:35;26.00;99.90
23550;DHT22;11953;49.010;8.608;2023-06-22T01:33:25;26.00;99.90
23550;DHT22;11953;49.010;8.608;2023-06-22T01:36:12;26.00;99.90
23550;DHT22;11953;49.010;8.608;2023-06-22T01:39:00;26.00;99.90
23550;DHT22;11953;49.010;8.608;2023-06-22T01:41:49;26.00;99.90
23550;DHT22;11953;49.010;8.608;2023-06-22T01:44:36;26.00;99.90
23550;DHT22;11953;49.010;8.608;2023-06-22T01:47:28;26.00;99.90
23550;DHT22;11953;49.010;8.608;2023-06-22T01:50:15;26.00;99.90
23550;DHT22;11953;49.010;8.608;2023-06-22T01:53:02;26.00;99.90
23550;DHT22;11953;49.010;8.608;2023-06-22T01:55:49;26.00;99.90
23550;DHT22;11953;49.010;8.608;2023-06-22T01:58:38;26.00;99.90
23550;DHT22;11953;49.010;8.608;2023-06-22T02:01:33;26.00;99.90
23550;DHT22;11953;49.010;8.608;2023-06-22T02:04:27;25.90;99.90
23550;DHT22;11953;49.010;8.608;2023-06-22T02:07:17;26.00;99.90
23550;DHT22;11953;49.010;8.608;2023-06-22T02:10:06;25.90;99.90
23550;DHT22;11953;49.010;8.608;2023-06-22T02:12:54;26.00;99.90
23550;DHT22;11953;49.010;8.608;2023-06-22T02:15:42;26.00;99.90
23550;DHT22;11953;49.010;8.608;2023-06-22T02:18:30;25.90;99.90
23550;DHT22;11953;49.010;8.608;2023-06-22T02:21:19;25.90;99.90
23550;DHT22;11953;49.010;8.608;2023-06-22T02:24:06;25.90;99.90
23550;DHT22;11953;49.010;8.608;2023-06-22T02:26:53;25.90;99.90
23550;DHT22;11953;49.010;8.608;2023-06-22T02:29:39;25.90;99.90
23550;DHT22;11953;49.010;8.608;2023-06-22T02:32:27;25.90;99.90
23550;DHT22;11953;49.010;8.608;2023-06-22T02:35:14;25.90;99.90
23550;DHT22;11953;49.010;8.608;2023-06-22T02:38:03;25.90;99.90
23550;DHT22;11953;49.010;8.608;2023-06-22T02:40:51;25.90;99.90
23550;DHT22;11953;49.010;8.608;2023-06-22T02:43:38;25.90;99.90
23550;DHT22;11953;49.010;8.608;2023-06-22T02:46:25;25.90;99.90
23550;DHT22;11953;49.010;8.608;2023-06-22T02:49:12;25.90;99.90
23550;DHT22;11953;49.010;8.608;2023-06-22T02:51:58;25.90;99.90
23550;DHT22;11953;49.010;8.608;2023-06-22T02:54:47;25.90;99.90
23550;DHT22;11953;49.010;8.608;2023-06-22T02:57:34;25.90;99.90
23550;DHT22;11953;49.010;8.608;2023-06-22T03:00:21;25.90;99.90
23550;DHT22;11953;49.010;8.608;2023-06-22T03:03:08;25.90;99.90
23550;DHT22;11953;49.010;8.608;2023-06-22T03:05:55;25.90;99.90
23550;DHT22;11953;49.010;8.608;2023-06-22T03:08:43;25.90;99.90
23550;DHT22;11953;49.010;8.608;2023-06-22T03:11:32;25.80;99.90
23550;DHT22;11953;49.010;8.608;2023-06-22T03:14:18;25.80;99.90
23550;DHT22;11953;49.010;8.608;2023-06-22T03:17:06;25.80;99.90
23550;DHT22;11953;49.010;8.608;2023-06-22T03:19:54;25.80;99.90
23550;DHT22;11953;49.010;8.608;2023-06-22T03:22:42;25.80;99.90
23550;DHT22;11953;49.010;8.608;2023-06-22T03:25:29;25.80;99.90
23550;DHT22;11953;49.010;8.608;2023-06-22T03:28:18;25.80;99.90
23550;DHT22;11953;49.010;8.608;2023-06-22T03:31:04;25.80;99.90
23550;DHT22;11953;49.010;8.608;2023-06-22T03:33:54;25.90;99.90
23550;DHT22;11953;49.010;8.608;2023-06-22T03:36:42;25.80;99.90
23550;DHT22;11953;49.010;8.608;2023-06-22T03:39:31;25.80;99.90
23550;DHT22;11953;49.010;8.608;2023-06-22T03:42:17;25.80;99.90
23550;DHT22;11953;49.010;8.608;2023-06-22T03:45:07;25.80;99.90
23550;DHT22;11953;49.010;8.608;2023-06-22T03:47:53;25.80;99.90
23550;DHT22;11953;49.010;8.608;2023-06-22T03:50:40;25.80;99.90
23550;DHT22;11953;49.010;8.608;2023-06-22T03:53:29;25.80;99.90
23550;DHT22;11953;49.010;8.608;2023-06-22T03:56:16;25.80;99.90
23550;DHT22;11953;49.010;8.608;2023-06-22T03:59:05;25.80;99.90
23550;DHT22;11953;49.010;8.608;2023-06-22T04:01:53;25.80;99.90
23550;DHT22;11953;49.010;8.608;2023-06-22T04:04:40;25.80;99.90
23550;DHT22;11953;49.010;8.608;2023-06-22T04:07:27;25.80;99.90
23550;DHT22;11953;49.010;8.608;2023-06-22T04:10:14;25.80;99.90
23550;DHT22;11953;49.010;8.608;2023-06-22T04:13:11;25.80;99.90
23550;DHT22;11953;49.010;8.608;2023-06-22T04:15:58;25.80;99.90
23550;DHT22;11953;49.010;8.608;2023-06-22T04:18:48;25.80;99.90
23550;DHT22;11953;49.010;8.608;2023-06-22T04:21:35;25.80;99.90
23550;DHT22;11953;49.010;8.608;2023-06-22T04:24:23;25.80;99.90
23550;DHT22;11953;49.010;8.608;2023-06-22T04:27:10;25.80;99.90
23550;DHT22;11953;49.010;8.608;2023-06-22T04:29:57;25.80;99.90
23550;DHT22;11953;49.010;8.608;2023-06-22T04:32:46;25.80;99.90
23550;DHT22;11953;49.010;8.608;2023-06-22T04:35:45;25.80;99.90
23550;DHT22;11953;49.010;8.608;2023-06-22T04:38:32;25.80;99.90
23550;DHT22;11953;49.010;8.608;2023-06-22T04:41:19;25.80;99.90
23550;DHT22;11953;49.010;8.608;2023-06-22T04:44:09;25.80;99.90
23550;DHT22;11953;49.010;8.608;2023-06-22T04:46:57;25.80;99.90
23550;DHT22;11953;49.010;8.608;2023-06-22T04:49:47;25.70;99.90
23550;DHT22;11953;49.010;8.608;2023-06-22T04:52:35;25.70;99.90
23550;DHT22;11953;49.010;8.608;2023-06-22T04:55:22;25.70;99.90
23550;DHT22;11953;49.010;8.608;2023-06-22T04:58:10;25.70;99.90
23550;DHT22;11953;49.010;8.608;2023-06-22T05:00:58;25.80;99.90
23550;DHT22;11953;49.010;8.608;2023-06-22T05:03:45;25.70;99.90
23550;DHT22;11953;49.010;8.608;2023-06-22T05:06:32;25.70;99.90
23550;DHT22;11953;49.010;8.608;2023-06-22T05:09:20;25.70;99.90
23550;DHT22;11953;49.010;8.608;2023-06-22T05:12:08;25.80;99.90
23550;DHT22;11953;49.010;8.608;2023-06-22T05:14:56;25.70;99.90
23550;DHT22;11953;49.010;8.608;2023-06-22T05:17:43;25.70;99.90
23550;DHT22;11953;49.010;8.608;2023-06-22T05:20:31;25.70;99.90
23550;DHT22;11953;49.010;8.608;2023-06-22T05:23:19;25.80;99.90
23550;DHT22;11953;49.010;8.608;2023-06-22T05:26:07;25.70;99.90
23550;DHT22;11953;49.010;8.608;2023-06-22T05:28:55;25.70;99.90
23550;DHT22;11953;49.010;8.608;2023-06-22T05:31:43;25.70;99.90
23550;DHT22;11953;49.010;8.608;2023-06-22T05:34:29;25.70;99.90
23550;DHT22;11953;49.010;8.608;2023-06-22T05:37:16;25.70;99.90
23550;DHT22;11953;49.010;8.608;2023-06-22T05:40:04;25.70;99.90
23550;DHT22;11953;49.010;8.608;2023-06-22T05:42:54;25.70;99.90
23550;DHT22;11953;49.010;8.608;2023-06-22T05:45:40;25.70;99.90
23550;DHT22;11953;49.010;8.608;2023-06-22T05:48:27;25.70;99.90
23550;DHT22;11953;49.010;8.608;2023-06-22T05:51:14;25.70;99.90
23550;DHT22;11953;49.010;8.608;2023-06-22T05:54:01;25.80;99.90
23550;DHT22;11953;49.010;8.608;2023-06-22T05:56:47;25.70;99.90
23550;DHT22;11953;49.010;8.608;2023-06-22T05:59:35;25.80;99.90
23550;DHT22;11953;49.010;8.608;2023-06-22T06:02:22;25.70;99.90
23550;DHT22;11953;49.010;8.608;2023-06-22T06:05:09;25.70;99.90
23550;DHT22;11953;49.010;8.608;2023-06-22T06:07:56;25.70;99.90
23550;DHT22;11953;49.010;8.608;2023-06-22T06:10:43;25.70;99.90
23550;DHT22;11953;49.010;8.608;2023-06-22T06:13:29;25.70;99.90
23550;DHT22;11953;49.010;8.608;2023-06-22T06:16:18;25.70;99.90
23550;DHT22;11953;49.010;8.608;2023-06-22T06:19:05;25.70;99.90
23550;DHT22;11953;49.010;8.608;2023-06-22T06:21:51;25.70;99.90
23550;DHT22;11953;49.010;8.608;2023-06-22T06:24:38;25.70;99.90
23550;DHT22;11953;49.010;8.608;2023-06-22T06:27:24;25.70;99.90
23550;DHT22;11953;49.010;8.608;2023-06-22T06:30:16;25.70;99.90
23550;DHT22;11953;49.010;8.608;2023-06-22T06:33:04;25.70;99.90
23550;DHT22;11953;49.010;8.608;2023-06-22T06:35:54;25.70;99.90
23550;DHT22;11953;49.010;8.608;2023-06-22T06:38:41;25.70;99.90
23550;DHT22;11953;49.010;8.608;2023-06-22T06:41:28;25.70;99.90
23550;DHT22;11953;49.010;8.608;2023-06-22T06:44:15;25.70;99.90
23550;DHT22;11953;49.010;8.608;2023-06-22T06:47:02;25.70;99.90
23550;DHT22;11953;49.010;8.608;2023-06-22T06:49:50;25.70;99.90
23550;DHT22;11953;49.010;8.608;2023-06-22T06:52:37;25.70;99.90
23550;DHT22;11953;49.010;8.608;2023-06-22T06:55:23;25.70;99.90
23550;DHT22;11953;49.010;8.608;2023-06-22T06:58:10;25.70;99.90
23550;DHT22;11953;49.010;8.608;2023-06-22T07:00:58;25.70;99.90
23550;DHT22;11953;49.010;8.608;2023-06-22T07:03:45;25.70;99.90
23550;DHT22;11953;49.010;8.608;2023-06-22T07:06:33;25.70;99.90
23550;DHT22;11953;49.010;8.608;2023-06-22T07:09:20;25.70;99.90
23550;DHT22;11953;49.010;8.608;2023-06-22T07:12:07;25.70;99.90
23550;DHT22;11953;49.010;8.608;2023-06-22T07:15:01;25.70;99.90
23550;DHT22;11953;49.010;8.608;2023-06-22T07:17:48;25.70;99.90
23550;DHT22;11953;49.010;8.608;2023-06-22T07:20:35;25.70;99.90
23550;DHT22;11953;49.010;8.608;2023-06-22T07:23:23;25.70;99.90
23550;DHT22;11953;49.010;8.608;2023-06-22T07:26:10;25.70;99.90
23550;DHT22;11953;49.010;8.608;2023-06-22T07:28:57;25.70;99.90
23550;DHT22;11953;49.010;8.608;2023-06-22T07:31:45;25.70;99.90
23550;DHT22;11953;49.010;8.608;2023-06-22T07:34:31;25.70;99.90
23550;DHT22;11953;49.010;8.608;2023-06-22T07:37:19;25.70;99.90
23550;DHT22;11953;49.010;8.608;2023-06-22T07:40:08;25.70;99.90
23550;DHT22;11953;49.010;8.608;2023-06-22T07:42:55;25.70;99.90
23550;DHT22;11953;49.010;8.608;2023-06-22T07:45:48;25.70;99.90
23550;DHT22;11953;49.010;8.608;2023-06-22T07:48:37;25.70;99.90
23550;DHT22;11953;49.010;8.608;2023-06-22T07:51:24;25.70;99.90
23550;DHT22;11953;49.010;8.608;2023-06-22T07:54:12;25.80;99.90
23550;DHT22;11953;49.010;8.608;2023-06-22T07:57:02;25.80;99.90
23550;DHT22;11953;49.010;8.608;2023-06-22T07:59:50;25.70;99.90
23550;DHT22;11953;49.010;8.608;2023-06-22T08:02:36;25.70;99.90
23550;DHT22;11953;49.010;8.608;2023-06-22T08:05:23;25.80;99.90
23550;DHT22;11953;49.010;8.608;2023-06-22T08:08:10;25.70;99.90
23550;DHT22;11953;49.010;8.608;2023-06-22T08:10:57;25.70;99.90
23550;DHT22;11953;49.010;8.608;2023-06-22T08:13:45;25.80;99.90
23550;DHT22;11953;49.010;8.608;2023-06-22T08:16:32;25.70;99.90
23550;DHT22;11953;49.010;8.608;2023-06-22T08:19:19;25.80;99.90
23550;DHT22;11953;49.010;8.608;2023-06-22T08:22:06;25.80;99.90
23550;DHT22;11953;49.010;8.608;2023-06-22T08:24:53;25.80;99.90
23550;DHT22;11953;49.010;8.608;2023-06-22T08:27:39;25.80;99.90
23550;DHT22;11953;49.010;8.608;2023-06-22T08:30:27;25.80;99.90
23550;DHT22;11953;49.010;8.608;2023-06-22T08:33:14;25.80;99.90
23550;DHT22;11953;49.010;8.608;2023-06-22T08:36:12;25.80;99.90
23550;DHT22;11953;49.010;8.608;2023-06-22T08:38:58;25.80;99.90
23550;DHT22;11953;49.010;8.608;2023-06-22T08:41:48;25.80;99.90
23550;DHT22;11953;49.010;8.608;2023-06-22T08:44:35;25.80;99.90
23550;DHT22;11953;49.010;8.608;2023-06-22T08:47:23;25.80;99.90
23550;DHT22;11953;49.010;8.608;2023-06-22T08:50:11;25.80;99.90
23550;DHT22;11953;49.010;8.608;2023-06-22T08:52:58;25.80;99.90
23550;DHT22;11953;49.010;8.608;2023-06-22T08:55:44;25.80;99.90
23550;DHT22;11953;49.010;8.608;2023-06-22T08:58:31;25.80;99.90
23550;DHT22;11953;49.010;8.608;2023-06-22T09:01:18;25.80;99.90
23550;DHT22;11953;49.010;8.608;2023-06-22T09:04:07;25.80;99.90
23550;DHT22;11953;49.010;8.608;2023-06-22T09:06:55;25.80;99.90
23550;DHT22;11953;49.010;8.608;2023-06-22T09:09:42;25.80;99.90
23550;DHT22;11953;49.010;8.608;2023-06-22T09:12:29;25.80;99.90
23550;DHT22;11953;49.010;8.608;2023-06-22T09:15:16;25.80;99.90
23550;DHT22;11953;49.010;8.608;2023-06-22T09:18:03;25.80;99.90
23550;DHT22;11953;49.010;8.608;2023-06-22T09:20:52;25.80;99.90
23550;DHT22;11953;49.010;8.608;2023-06-22T09:23:38;25.80;99.90
23550;DHT22;11953;49.010;8.608;2023-06-22T09:26:26;25.80;99.90
23550;DHT22;11953;49.010;8.608;2023-06-22T09:29:12;25.80;99.90
23550;DHT22;11953;49.010;8.608;2023-06-22T09:31:59;25.80;99.90
23550;DHT22;11953;49.010;8.608;2023-06-22T09:34:47;25.80;99.90
23550;DHT22;11953;49.010;8.608;2023-06-22T09:37:35;25.80;99.90
23550;DHT22;11953;49.010;8.608;2023-06-22T09:40:22;25.80;99.90
23550;DHT22;11953;49.010;8.608;2023-06-22T09:43:09;25.80;99.90
23550;DHT22;11953;49.010;8.608;2023-06-22T09:45:56;25.80;99.90
23550;DHT22;11953;49.010;8.608;2023-06-22T09:48:43;25.80;99.90
23550;DHT22;11953;49.010;8.608;2023-06-22T09:51:30;25.80;99.90
23550;DHT22;11953;49.010;8.608;2023-06-22T09:54:18;25.90;99.90
23550;DHT22;11953;49.010;8.608;2023-06-22T09:57:05;25.90;99.90
23550;DHT22;11953;49.010;8.608;2023-06-22T09:59:52;25.90;99.90
23550;DHT22;11953;49.010;8.608;2023-06-22T10:02:39;25.80;99.90
23550;DHT22;11953;49.010;8.608;2023-06-22T10:05:26;25.90;99.90
23550;DHT22;11953;49.010;8.608;2023-06-22T10:08:14;25.90;99.90
23550;DHT22;11953;49.010;8.608;2023-06-22T10:11:02;25.90;99.90
23550;DHT22;11953;49.010;8.608;2023-06-22T10:13:49;25.90;99.90
23550;DHT22;11953;49.010;8.608;2023-06-22T10:16:36;25.90;99.90
23550;DHT22;11953;49.010;8.608;2023-06-22T10:19:23;25.90;99.90
23550;DHT22;11953;49.010;8.608;2023-06-22T10:22:10;25.90;99.90
23550;DHT22;11953;49.010;8.608;2023-06-22T10:24:57;25.90;99.90
23550;DHT22;11953;49.010;8.608;2023-06-22T10:27:45;25.90;99.90
23550;DHT22;11953;49.010;8.608;2023-06-22T10:30:32;26.00;99.90
23550;DHT22;11953;49.010;8.608;2023-06-22T10:33:19;25.90;99.90
23550;DHT22;11953;49.010;8.608;2023-06-22T10:36:06;25.90;99.90
23550;DHT22;11953;49.010;8.608;2023-06-22T10:38:53;25.90;99.90
23550;DHT22;11953;49.010;8.608;2023-06-22T10:41:41;26.00;99.90
23550;DHT22;11953;49.010;8.608;2023-06-22T10:44:29;26.00;99.90
23550;DHT22;11953;49.010;8.608;2023-06-22T10:47:16;26.00;99.90
23550;DHT22;11953;49.010;8.608;2023-06-22T10:50:03;26.00;99.90
23550;DHT22;11953;49.010;8.608;2023-06-22T10:52:50;26.00;99.90
23550;DHT22;11953;49.010;8.608;2023-06-22T10:55:37;26.00;99.90
23550;DHT22;11953;49.010;8.608;2023-06-22T10:58:41;26.00;99.90
23550;DHT22;11953;49.010;8.608;2023-06-22T11:01:29;26.00;99.90
23550;DHT22;11953;49.010;8.608;2023-06-22T11:04:21;26.00;99.90
23550;DHT22;11953;49.010;8.608;2023-06-22T11:07:09;26.00;99.90
23550;DHT22;11953;49.010;8.608;2023-06-22T11:09:56;26.00;99.90
23550;DHT22;11953;49.010;8.608;2023-06-22T11:12:43;26.00;99.90
23550;DHT22;11953;49.010;8.608;2023-06-22T11:15:30;26.00;99.90
23550;DHT22;11953;49.010;8.608;2023-06-22T11:18:18;26.00;99.90
23550;DHT22;11953;49.010;8.608;2023-06-22T11:21:05;26.00;99.90
23550;DHT22;11953;49.010;8.608;2023-06-22T11:23:52;26.00;99.90
23550;DHT22;11953;49.010;8.608;2023-06-22T11:26:39;26.10;99.90
23550;DHT22;11953;49.010;8.608;2023-06-22T11:29:29;26.10;99.90
23550;DHT22;11953;49.010;8.608;2023-06-22T11:32:23;26.10;99.90
23550;DHT22;11953;49.010;8.608;2023-06-22T11:35:11;26.10;99.90
23550;DHT22;11953;49.010;8.608;2023-06-22T11:37:57;26.10;99.90
23550;DHT22;11953;49.010;8.608;2023-06-22T11:40:44;26.10;99.90
23550;DHT22;11953;49.010;8.608;2023-06-22T11:43:31;26.10;99.90
23550;DHT22;11953;49.010;8.608;2023-06-22T11:46:17;26.10;99.90
23550;DHT22;11953;49.010;8.608;2023-06-22T11:49:04;26.10;99.90
23550;DHT22;11953;49.010;8.608;2023-06-22T11:51:52;26.10;99.90
23550;DHT22;11953;49.010;8.608;2023-06-22T11:54:39;26.10;99.90
23550;DHT22;11953;49.010;8.608;2023-06-22T11:57:26;26.10;99.90
23550;DHT22;11953;49.010;8.608;2023-06-22T12:00:13;26.10;99.90
23550;DHT22;11953;49.010;8.608;2023-06-22T12:03:02;26.10;99.90
23550;DHT22;11953;49.010;8.608;2023-06-22T12:05:50;26.10;99.90
23550;DHT22;11953;49.010;8.608;2023-06-22T12:08:39;26.10;99.90
23550;DHT22;11953;49.010;8.608;2023-06-22T12:11:26;26.10;99.90
23550;DHT22;11953;49.010;8.608;2023-06-22T12:14:12;26.10;99.90
23550;DHT22;11953;49.010;8.608;2023-06-22T12:16:59;26.10;99.90
23550;DHT22;11953;49.010;8.608;2023-06-22T12:19:46;26.20;99.90
23550;DHT22;11953;49.010;8.608;2023-06-22T12:22:32;26.20;99.90
23550;DHT22;11953;49.010;8.608;2023-06-22T12:25:21;26.20;99.90
23550;DHT22;11953;49.010;8.608;2023-06-22T12:28:08;26.20;99.90
23550;DHT22;11953;49.010;8.608;2023-06-22T12:30:55;26.20;99.90
23550;DHT22;11953;49.010;8.608;2023-06-22T12:33:41;26.30;99.90
23550;DHT22;11953;49.010;8.608;2023-06-22T12:36:28;26.20;99.90
23550;DHT22;11953;49.010;8.608;2023-06-22T12:39:15;26.20;99.90
23550;DHT22;11953;49.010;8.608;2023-06-22T12:42:04;26.30;99.90
23550;DHT22;11953;49.010;8.608;2023-06-22T12:44:53;26.20;99.90
23550;DHT22;11953;49.010;8.608;2023-06-22T12:47:40;26.20;99.90
23550;DHT22;11953;49.010;8.608;2023-06-22T12:50:27;26.30;99.90
23550;DHT22;11953;49.010;8.608;2023-06-22T12:53:14;26.30;99.90
23550;DHT22;11953;49.010;8.608;2023-06-22T12:56:01;26.30;99.90
23550;DHT22;11953;49.010;8.608;2023-06-22T12:58:50;26.30;99.90
23550;DHT22;11953;49.010;8.608;2023-06-22T13:01:36;26.30;99.90
23550;DHT22;11953;49.010;8.608;2023-06-22T13:04:23;26.30;99.90
23550;DHT22;11953;49.010;8.608;2023-06-22T13:07:09;26.30;99.90
23550;DHT22;11953;49.010;8.608;2023-06-22T13:09:59;26.30;99.90
23550;DHT22;11953;49.010;8.608;2023-06-22T13:12:45;26.30;99.90
23550;DHT22;11953;49.010;8.608;2023-06-22T13:15:33;26.30;99.90
23550;DHT22;11953;49.010;8.608;2023-06-22T13:18:20;26.30;99.90
23550;DHT22;11953;49.010;8.608;2023-06-22T13:21:07;26.30;99.90
23550;DHT22;11953;49.010;8.608;2023-06-22T13:23:54;26.30;99.90
23550;DHT22;11953;49.010;8.608;2023-06-22T13:26:41;26.40;99.90
23550;DHT22;11953;49.010;8.608;2023-06-22T13:29:28;26.30;99.90
23550;DHT22;11953;49.010;8.608;2023-06-22T13:32:16;26.30;99.90
23550;DHT22;11953;49.010;8.608;2023-06-22T13:35:02;26.40;99.90
23550;DHT22;11953;49.010;8.608;2023-06-22T13:37:50;26.40;99.90
23550;DHT22;11953;49.010;8.608;2023-06-22T13:40:37;26.40;99.90
23550;DHT22;11953;49.010;8.608;2023-06-22T13:43:24;26.40;99.90
23550;DHT22;11953;49.010;8.608;2023-06-22T13:46:11;26.40;99.90
23550;DHT22;11953;49.010;8.608;2023-06-22T13:48:59;26.40;99.90
23550;DHT22;11953;49.010;8.608;2023-06-22T13:51:46;26.40;99.90
23550;DHT22;11953;49.010;8.608;2023-06-22T13:54:33;26.40;99.90
23550;DHT22;11953;49.010;8.608;2023-06-22T13:57:20;26.40;99.90
23550;DHT22;11953;49.010;8.608;2023-06-22T14:00:08;26.40;99.90
23550;DHT22;11953;49.010;8.608;2023-06-22T14:02:58;26.40;99.90
23550;DHT22;11953;49.010;8.608;2023-06-22T14:05:47;26.50;99.90
23550;DHT22;11953;49.010;8.608;2023-06-22T14:08:33;26.50;99.90
23550;DHT22;11953;49.010;8.608;2023-06-22T14:11:24;26.50;99.90
23550;DHT22;11953;49.010;8.608;2023-06-22T14:14:10;26.40;99.90
23550;DHT22;11953;49.010;8.608;2023-06-22T14:16:57;26.50;99.90
23550;DHT22;11953;49.010;8.608;2023-06-22T14:19:44;26.50;99.90
23550;DHT22;11953;49.010;8.608;2023-06-22T14:22:32;26.40;99.90
23550;DHT22;11953;49.010;8.608;2023-06-22T14:25:21;26.50;99.90
23550;DHT22;11953;49.010;8.608;2023-06-22T14:28:07;26.50;99.90
23550;DHT22;11953;49.010;8.608;2023-06-22T14:30:54;26.40;99.90
23550;DHT22;11953;49.010;8.608;2023-06-22T14:33:45;26.50;99.90
23550;DHT22;11953;49.010;8.608;2023-06-22T14:36:32;26.50;99.90
23550;DHT22;11953;49.010;8.608;2023-06-22T14:39:20;26.50;99.90
23550;DHT22;11953;49.010;8.608;2023-06-22T14:42:07;26.50;99.90
23550;DHT22;11953;49.010;8.608;2023-06-22T14:44:53;26.50;99.90
23550;DHT22;11953;49.010;8.608;2023-06-22T14:47:40;26.50;99.90
23550;DHT22;11953;49.010;8.608;2023-06-22T14:50:27;26.50;99.90
23550;DHT22;11953;49.010;8.608;2023-06-22T14:53:14;26.50;99.90
23550;DHT22;11953;49.010;8.608;2023-06-22T14:56:02;26.50;99.90
23550;DHT22;11953;49.010;8.608;2023-06-22T14:58:49;26.50;99.90
23550;DHT22;11953;49.010;8.608;2023-06-22T15:01:35;26.50;99.90
23550;DHT22;11953;49.010;8.608;2023-06-22T15:04:25;26.50;99.90
23550;DHT22;11953;49.010;8.608;2023-06-22T15:07:17;26.60;99.90
23550;DHT22;11953;49.010;8.608;2023-06-22T15:10:05;26.60;99.90
23550;DHT22;11953;49.010;8.608;2023-06-22T15:12:54;26.60;99.90
23550;DHT22;11953;49.010;8.608;2023-06-22T15:15:41;26.60;99.90
23550;DHT22;11953;49.010;8.608;2023-06-22T15:18:28;26.60;99.90
23550;DHT22;11953;49.010;8.608;2023-06-22T15:21:14;26.60;99.90
23550;DHT22;11953;49.010;8.608;2023-06-22T15:24:02;26.70;99.90
23550;DHT22;11953;49.010;8.608;2023-06-22T15:26:49;26.70;99.90
23550;DHT22;11953;49.010;8.608;2023-06-22T15:29:37;26.70;99.90
23550;DHT22;11953;49.010;8.608;2023-06-22T15:32:25;26.70;99.90
23550;DHT22;11953;49.010;8.608;2023-06-22T15:35:11;26.70;99.90
23550;DHT22;11953;49.010;8.608;2023-06-22T15:37:59;26.70;99.90
23550;DHT22;11953;49.010;8.608;2023-06-22T15:40:47;26.80;99.90
23550;DHT22;11953;49.010;8.608;2023-06-22T15:43:34;26.80;99.90
23550;DHT22;11953;49.010;8.608;2023-06-22T15:46:22;26.80;99.90
23550;DHT22;11953;49.010;8.608;2023-06-22T15:49:09;26.80;99.90
23550;DHT22;11953;49.010;8.608;2023-06-22T15:51:56;26.80;99.90
23550;DHT22;11953;49.010;8.608;2023-06-22T15:54:42;26.90;99.90
23550;DHT22;11953;49.010;8.608;2023-06-22T15:57:29;26.90;99.90
23550;DHT22;11953;49.010;8.608;2023-06-22T16:00:17;27.00;99.90
23550;DHT22;11953;49.010;8.608;2023-06-22T16:03:05;27.00;99.90
23550;DHT22;11953;49.010;8.608;2023-06-22T16:05:52;27.00;99.90
23550;DHT22;11953;49.010;8.608;2023-06-22T16:08:38;27.00;99.90
23550;DHT22;11953;49.010;8.608;2023-06-22T16:11:25;27.10;99.90
23550;DHT22;11953;49.010;8.608;2023-06-22T16:14:12;27.10;99.90
23550;DHT22;11953;49.010;8.608;2023-06-22T16:16:59;27.10;99.90
23550;DHT22;11953;49.010;8.608;2023-06-22T16:19:50;27.10;99.90
23550;DHT22;11953;49.010;8.608;2023-06-22T16:22:39;27.20;99.90
23550;DHT22;11953;49.010;8.608;2023-06-22T16:25:26;27.20;99.90
23550;DHT22;11953;49.010;8.608;2023-06-22T16:28:13;27.20;99.90
23550;DHT22;11953;49.010;8.608;2023-06-22T16:31:00;27.20;99.90
23550;DHT22;11953;49.010;8.608;2023-06-22T16:33:46;27.30;99.90
23550;DHT22;11953;49.010;8.608;2023-06-22T16:36:36;27.30;99.90
23550;DHT22;11953;49.010;8.608;2023-06-22T16:39:23;27.30;99.90
23550;DHT22;11953;49.010;8.608;2023-06-22T16:42:09;27.30;99.90
23550;DHT22;11953;49.010;8.608;2023-06-22T16:44:56;27.40;99.90
23550;DHT22;11953;49.010;8.608;2023-06-22T16:47:44;27.40;99.90
23550;DHT22;11953;49.010;8.608;2023-06-22T16:50:31;27.40;99.90
23550;DHT22;11953;49.010;8.608;2023-06-22T16:53:19;27.40;99.90
23550;DHT22;11953;49.010;8.608;2023-06-22T16:56:07;27.40;99.90
23550;DHT22;11953;49.010;8.608;2023-06-22T16:58:54;27.50;99.90
23550;DHT22;11953;49.010;8.608;2023-06-22T17:01:54;27.50;99.90
23550;DHT22;11953;49.010;8.608;2023-06-22T17:04:43;27.50;99.90
23550;DHT22;11953;49.010;8.608;2023-06-22T17:07:33;27.60;99.90
23550;DHT22;11953;49.010;8.608;2023-06-22T17:10:22;27.60;99.90
23550;DHT22;11953;49.010;8.608;2023-06-22T17:13:08;27.60;99.90
23550;DHT22;11953;49.010;8.608;2023-06-22T17:15:59;27.60;99.90
23550;DHT22;11953;49.010;8.608;2023-06-22T17:18:47;27.60;99.90
23550;DHT22;11953;49.010;8.608;2023-06-22T17:21:37;27.60;99.90
23550;DHT22;11953;49.010;8.608;2023-06-22T17:24:24;27.70;99.90
23550;DHT22;11953;49.010;8.608;2023-06-22T17:27:12;27.70;99.90
23550;DHT22;11953;49.010;8.608;2023-06-22T17:30:07;27.70;99.90
23550;DHT22;11953;49.010;8.608;2023-06-22T17:32:54;27.70;99.90
23550;DHT22;11953;49.010;8.608;2023-06-22T17:35:45;27.60;99.90
23550;DHT22;11953;49.010;8.608;2023-06-22T17:38:36;27.70;99.90